Terminal Aerodrome Forecast
Issued by NWS Rapid City, SD

Home | Current Version | Previous Version | Text Only | Print | Product List | Glossary On
Versions: 1 2 3 4 5 6 7 8 9 10 11 12 13 14 15 16 17 18 19 20
000
FTUS43 KUNR 191700
TAFRAP
TAF
KRAP 191720Z 1918/2018 13005KT P6SM SCT130 SCT250
     FM200000 32004KT P6SM SCT250
     FM201300 33008KT P6SM SCT060 OVC100=

USA.gov is the U.S. government's official web portal to all federal, state and local government web resources and services.